sensor_id;sensor_type;location;lat;lon;timestamp;P1;durP1;ratioP1;P2;durP2;ratioP2
7475;SDS011;3779;49.216;8.650;2022-11-20T00:02:38;3.35;;;3.10;;
7475;SDS011;3779;49.216;8.650;2022-11-20T00:05:24;3.17;;;2.87;;
7475;SDS011;3779;49.216;8.650;2022-11-20T00:08:10;3.45;;;3.15;;
7475;SDS011;3779;49.216;8.650;2022-11-20T00:10:56;2.80;;;2.60;;
7475;SDS011;3779;49.216;8.650;2022-11-20T00:13:42;3.03;;;2.83;;
7475;SDS011;3779;49.216;8.650;2022-11-20T00:16:30;3.30;;;3.00;;
7475;SDS011;3779;49.216;8.650;2022-11-20T00:19:17;3.42;;;3.13;;
7475;SDS011;3779;49.216;8.650;2022-11-20T00:22:03;3.20;;;3.00;;
7475;SDS011;3779;49.216;8.650;2022-11-20T00:24:49;2.93;;;2.73;;
7475;SDS011;3779;49.216;8.650;2022-11-20T00:27:35;2.97;;;2.77;;
7475;SDS011;3779;49.216;8.650;2022-11-20T00:30:21;3.10;;;2.90;;
7475;SDS011;3779;49.216;8.650;2022-11-20T00:33:06;2.80;;;2.60;;
7475;SDS011;3779;49.216;8.650;2022-11-20T00:35:52;3.20;;;3.00;;
7475;SDS011;3779;49.216;8.650;2022-11-20T00:38:38;3.10;;;2.80;;
7475;SDS011;3779;49.216;8.650;2022-11-20T00:41:25;3.10;;;2.80;;
7475;SDS011;3779;49.216;8.650;2022-11-20T00:44:12;3.00;;;2.70;;
7475;SDS011;3779;49.216;8.650;2022-11-20T00:46:58;3.33;;;3.03;;
7475;SDS011;3779;49.216;8.650;2022-11-20T00:49:44;3.30;;;3.00;;
7475;SDS011;3779;49.216;8.650;2022-11-20T00:52:30;4.70;;;3.30;;
7475;SDS011;3779;49.216;8.650;2022-11-20T00:55:16;3.67;;;3.37;;
7475;SDS011;3779;49.216;8.650;2022-11-20T00:58:01;3.60;;;3.30;;
7475;SDS011;3779;49.216;8.650;2022-11-20T01:00:47;3.83;;;3.43;;
7475;SDS011;3779;49.216;8.650;2022-11-20T01:03:36;3.97;;;3.57;;
7475;SDS011;3779;49.216;8.650;2022-11-20T01:06:28;5.57;;;4.30;;
7475;SDS011;3779;49.216;8.650;2022-11-20T01:09:16;3.80;;;3.50;;
7475;SDS011;3779;49.216;8.650;2022-11-20T01:12:02;4.43;;;3.83;;
7475;SDS011;3779;49.216;8.650;2022-11-20T01:14:48;4.10;;;3.70;;
7475;SDS011;3779;49.216;8.650;2022-11-20T01:17:34;4.40;;;4.00;;
7475;SDS011;3779;49.216;8.650;2022-11-20T01:20:19;4.50;;;4.10;;
7475;SDS011;3779;49.216;8.650;2022-11-20T01:23:05;4.40;;;4.00;;
7475;SDS011;3779;49.216;8.650;2022-11-20T01:25:51;5.70;;;3.83;;
7475;SDS011;3779;49.216;8.650;2022-11-20T01:28:37;4.43;;;4.03;;
7475;SDS011;3779;49.216;8.650;2022-11-20T01:31:25;4.40;;;4.07;;
7475;SDS011;3779;49.216;8.650;2022-11-20T01:34:13;4.73;;;4.23;;
7475;SDS011;3779;49.216;8.650;2022-11-20T01:37:01;3.93;;;3.63;;
7475;SDS011;3779;49.216;8.650;2022-11-20T01:39:46;4.03;;;3.63;;
7475;SDS011;3779;49.216;8.650;2022-11-20T01:42:32;4.72;;;4.32;;
7475;SDS011;3779;49.216;8.650;2022-11-20T01:45:50;4.95;;;3.70;;
7475;SDS011;3779;49.216;8.650;2022-11-20T01:48:38;4.57;;;4.17;;
7475;SDS011;3779;49.216;8.650;2022-11-20T01:51:39;3.60;;;3.27;;
7475;SDS011;3779;49.216;8.650;2022-11-20T01:54:55;4.57;;;4.13;;
7475;SDS011;3779;49.216;8.650;2022-11-20T01:57:44;4.70;;;4.30;;
7475;SDS011;3779;49.216;8.650;2022-11-20T02:00:32;5.70;;;3.60;;
7475;SDS011;3779;49.216;8.650;2022-11-20T02:03:18;4.85;;;4.35;;
7475;SDS011;3779;49.216;8.650;2022-11-20T02:06:10;4.77;;;4.37;;
7475;SDS011;3779;49.216;8.650;2022-11-20T02:09:00;5.10;;;4.60;;
7475;SDS011;3779;49.216;8.650;2022-11-20T02:11:46;5.30;;;4.80;;
7475;SDS011;3779;49.216;8.650;2022-11-20T02:14:32;5.00;;;4.60;;
7475;SDS011;3779;49.216;8.650;2022-11-20T02:17:18;6.60;;;4.57;;
7475;SDS011;3779;49.216;8.650;2022-11-20T02:20:04;5.20;;;4.70;;
7475;SDS011;3779;49.216;8.650;2022-11-20T02:22:55;5.37;;;4.43;;
7475;SDS011;3779;49.216;8.650;2022-11-20T02:25:44;5.10;;;4.70;;
7475;SDS011;3779;49.216;8.650;2022-11-20T02:28:33;4.43;;;4.03;;
7475;SDS011;3779;49.216;8.650;2022-11-20T02:31:20;4.57;;;4.17;;
7475;SDS011;3779;49.216;8.650;2022-11-20T02:34:05;5.20;;;4.80;;
7475;SDS011;3779;49.216;8.650;2022-11-20T02:36:51;4.90;;;4.40;;
7475;SDS011;3779;49.216;8.650;2022-11-20T02:39:38;5.23;;;4.73;;
7475;SDS011;3779;49.216;8.650;2022-11-20T02:42:25;5.17;;;4.67;;
7475;SDS011;3779;49.216;8.650;2022-11-20T02:45:11;5.73;;;4.90;;
7475;SDS011;3779;49.216;8.650;2022-11-20T02:47:57;5.20;;;4.80;;
7475;SDS011;3779;49.216;8.650;2022-11-20T02:50:43;5.27;;;4.77;;
7475;SDS011;3779;49.216;8.650;2022-11-20T02:53:29;6.87;;;4.30;;
7475;SDS011;3779;49.216;8.650;2022-11-20T02:56:14;4.83;;;4.43;;
7475;SDS011;3779;49.216;8.650;2022-11-20T02:59:01;5.60;;;5.00;;
7475;SDS011;3779;49.216;8.650;2022-11-20T03:01:47;5.67;;;5.17;;
7475;SDS011;3779;49.216;8.650;2022-11-20T03:04:32;5.60;;;4.87;;
7475;SDS011;3779;49.216;8.650;2022-11-20T03:07:18;5.13;;;4.57;;
7475;SDS011;3779;49.216;8.650;2022-11-20T03:10:04;4.90;;;4.50;;
7475;SDS011;3779;49.216;8.650;2022-11-20T03:12:54;5.40;;;4.90;;
7475;SDS011;3779;49.216;8.650;2022-11-20T03:15:40;5.47;;;4.97;;
7475;SDS011;3779;49.216;8.650;2022-11-20T03:18:27;5.70;;;5.10;;
7475;SDS011;3779;49.216;8.650;2022-11-20T03:21:14;4.80;;;4.40;;
7475;SDS011;3779;49.216;8.650;2022-11-20T03:24:01;4.90;;;4.50;;
7475;SDS011;3779;49.216;8.650;2022-11-20T03:26:47;5.30;;;4.80;;
7475;SDS011;3779;49.216;8.650;2022-11-20T03:29:35;5.27;;;4.70;;
7475;SDS011;3779;49.216;8.650;2022-11-20T03:32:21;5.30;;;4.80;;
7475;SDS011;3779;49.216;8.650;2022-11-20T03:35:07;5.60;;;4.23;;
7475;SDS011;3779;49.216;8.650;2022-11-20T03:37:53;5.40;;;4.90;;
7475;SDS011;3779;49.216;8.650;2022-11-20T03:40:39;4.77;;;4.37;;
7475;SDS011;3779;49.216;8.650;2022-11-20T03:43:24;5.10;;;4.70;;
7475;SDS011;3779;49.216;8.650;2022-11-20T03:46:11;5.57;;;4.97;;
7475;SDS011;3779;49.216;8.650;2022-11-20T03:48:56;5.20;;;4.80;;
7475;SDS011;3779;49.216;8.650;2022-11-20T03:51:45;5.17;;;4.67;;
7475;SDS011;3779;49.216;8.650;2022-11-20T03:54:31;5.30;;;4.80;;
7475;SDS011;3779;49.216;8.650;2022-11-20T03:57:17;5.47;;;4.80;;
7475;SDS011;3779;49.216;8.650;2022-11-20T04:00:03;5.80;;;5.27;;
7475;SDS011;3779;49.216;8.650;2022-11-20T04:02:50;6.20;;;5.70;;
7475;SDS011;3779;49.216;8.650;2022-11-20T04:05:35;6.17;;;5.57;;
7475;SDS011;3779;49.216;8.650;2022-11-20T04:08:21;5.67;;;5.17;;
7475;SDS011;3779;49.216;8.650;2022-11-20T04:11:29;5.97;;;5.37;;
7475;SDS011;3779;49.216;8.650;2022-11-20T04:14:17;6.20;;;5.60;;
7475;SDS011;3779;49.216;8.650;2022-11-20T04:17:03;6.45;;;5.85;;
7475;SDS011;3779;49.216;8.650;2022-11-20T04:19:49;6.40;;;5.80;;
7475;SDS011;3779;49.216;8.650;2022-11-20T04:22:35;5.87;;;5.37;;
7475;SDS011;3779;49.216;8.650;2022-11-20T04:25:20;5.77;;;5.27;;
7475;SDS011;3779;49.216;8.650;2022-11-20T04:28:06;6.70;;;6.05;;
7475;SDS011;3779;49.216;8.650;2022-11-20T04:30:52;7.53;;;5.70;;
7475;SDS011;3779;49.216;8.650;2022-11-20T04:33:38;8.63;;;5.93;;
7475;SDS011;3779;49.216;8.650;2022-11-20T04:36:26;6.77;;;5.43;;
7475;SDS011;3779;49.216;8.650;2022-11-20T04:39:13;6.37;;;5.77;;
7475;SDS011;3779;49.216;8.650;2022-11-20T04:42:00;6.67;;;5.63;;
7475;SDS011;3779;49.216;8.650;2022-11-20T04:45:22;6.37;;;5.80;;
7475;SDS011;3779;49.216;8.650;2022-11-20T04:48:08;5.77;;;5.13;;
7475;SDS011;3779;49.216;8.650;2022-11-20T04:50:54;5.80;;;5.30;;
7475;SDS011;3779;49.216;8.650;2022-11-20T04:53:40;6.07;;;5.47;;
7475;SDS011;3779;49.216;8.650;2022-11-20T04:56:26;6.00;;;5.30;;
7475;SDS011;3779;49.216;8.650;2022-11-20T04:59:12;5.50;;;5.00;;
7475;SDS011;3779;49.216;8.650;2022-11-20T05:01:58;6.13;;;5.50;;
7475;SDS011;3779;49.216;8.650;2022-11-20T05:04:44;6.23;;;5.63;;
7475;SDS011;3779;49.216;8.650;2022-11-20T05:07:30;7.10;;;5.80;;
7475;SDS011;3779;49.216;8.650;2022-11-20T05:10:16;6.57;;;5.50;;
7475;SDS011;3779;49.216;8.650;2022-11-20T05:13:02;5.83;;;5.10;;
7475;SDS011;3779;49.216;8.650;2022-11-20T05:15:47;5.80;;;5.20;;
7475;SDS011;3779;49.216;8.650;2022-11-20T05:18:35;6.60;;;6.00;;
7475;SDS011;3779;49.216;8.650;2022-11-20T05:21:22;6.13;;;5.60;;
7475;SDS011;3779;49.216;8.650;2022-11-20T05:24:08;6.13;;;5.53;;
7475;SDS011;3779;49.216;8.650;2022-11-20T05:26:54;6.30;;;5.70;;
7475;SDS011;3779;49.216;8.650;2022-11-20T05:29:39;6.43;;;5.83;;
7475;SDS011;3779;49.216;8.650;2022-11-20T05:32:25;7.10;;;6.40;;
7475;SDS011;3779;49.216;8.650;2022-11-20T05:35:11;8.03;;;5.93;;
7475;SDS011;3779;49.216;8.650;2022-11-20T05:37:57;6.60;;;5.90;;
7475;SDS011;3779;49.216;8.650;2022-11-20T05:40:43;6.80;;;6.20;;
7475;SDS011;3779;49.216;8.650;2022-11-20T05:43:31;7.33;;;6.10;;
7475;SDS011;3779;49.216;8.650;2022-11-20T05:46:19;7.60;;;6.33;;
7475;SDS011;3779;49.216;8.650;2022-11-20T05:49:05;6.60;;;6.00;;
7475;SDS011;3779;49.216;8.650;2022-11-20T05:51:51;6.90;;;6.20;;
7475;SDS011;3779;49.216;8.650;2022-11-20T05:54:37;8.23;;;7.43;;
7475;SDS011;3779;49.216;8.650;2022-11-20T05:57:23;8.43;;;7.63;;
7475;SDS011;3779;49.216;8.650;2022-11-20T06:00:09;7.70;;;7.00;;
7475;SDS011;3779;49.216;8.650;2022-11-20T06:02:55;8.40;;;6.70;;
7475;SDS011;3779;49.216;8.650;2022-11-20T06:05:41;6.33;;;5.73;;
7475;SDS011;3779;49.216;8.650;2022-11-20T06:08:27;6.80;;;6.20;;
7475;SDS011;3779;49.216;8.650;2022-11-20T06:11:13;6.43;;;5.83;;
7475;SDS011;3779;49.216;8.650;2022-11-20T06:14:00;6.67;;;6.07;;
7475;SDS011;3779;49.216;8.650;2022-11-20T06:16:46;6.93;;;6.23;;
7475;SDS011;3779;49.216;8.650;2022-11-20T06:19:31;6.23;;;5.63;;
7475;SDS011;3779;49.216;8.650;2022-11-20T06:22:17;5.90;;;5.40;;
7475;SDS011;3779;49.216;8.650;2022-11-20T06:25:03;6.40;;;5.80;;
7475;SDS011;3779;49.216;8.650;2022-11-20T06:27:49;6.10;;;5.50;;
7475;SDS011;3779;49.216;8.650;2022-11-20T06:30:35;6.30;;;5.77;;
7475;SDS011;3779;49.216;8.650;2022-11-20T06:33:21;7.13;;;6.43;;
7475;SDS011;3779;49.216;8.650;2022-11-20T06:36:07;6.90;;;6.20;;
7475;SDS011;3779;49.216;8.650;2022-11-20T06:38:54;6.67;;;5.77;;
7475;SDS011;3779;49.216;8.650;2022-11-20T06:41:40;5.47;;;4.90;;
7475;SDS011;3779;49.216;8.650;2022-11-20T06:44:26;6.50;;;5.23;;
7475;SDS011;3779;49.216;8.650;2022-11-20T06:47:12;6.07;;;5.57;;
7475;SDS011;3779;49.216;8.650;2022-11-20T06:49:58;5.87;;;5.17;;
7475;SDS011;3779;49.216;8.650;2022-11-20T06:52:44;5.43;;;4.93;;
7475;SDS011;3779;49.216;8.650;2022-11-20T06:55:30;5.03;;;4.53;;
7475;SDS011;3779;49.216;8.650;2022-11-20T06:58:16;5.47;;;4.97;;
7475;SDS011;3779;49.216;8.650;2022-11-20T07:01:05;6.27;;;4.83;;
7475;SDS011;3779;49.216;8.650;2022-11-20T07:03:54;5.40;;;4.53;;
7475;SDS011;3779;49.216;8.650;2022-11-20T07:06:39;3.90;;;3.50;;
7475;SDS011;3779;49.216;8.650;2022-11-20T07:09:25;3.47;;;3.17;;
7475;SDS011;3779;49.216;8.650;2022-11-20T07:12:11;3.00;;;2.80;;
7475;SDS011;3779;49.216;8.650;2022-11-20T07:14:57;2.83;;;2.40;;
7475;SDS011;3779;49.216;8.650;2022-11-20T07:17:43;2.87;;;2.53;;
7475;SDS011;3779;49.216;8.650;2022-11-20T07:20:29;3.30;;;2.60;;
7475;SDS011;3779;49.216;8.650;2022-11-20T07:23:15;2.67;;;2.47;;
7475;SDS011;3779;49.216;8.650;2022-11-20T07:26:07;2.93;;;2.67;;
7475;SDS011;3779;49.216;8.650;2022-11-20T07:28:55;2.77;;;2.50;;
7475;SDS011;3779;49.216;8.650;2022-11-20T07:31:41;2.53;;;2.33;;
7475;SDS011;3779;49.216;8.650;2022-11-20T07:34:27;3.50;;;2.30;;
7475;SDS011;3779;49.216;8.650;2022-11-20T07:37:13;2.77;;;2.30;;
7475;SDS011;3779;49.216;8.650;2022-11-20T07:39:59;2.70;;;2.40;;
7475;SDS011;3779;49.216;8.650;2022-11-20T07:42:49;3.38;;;2.60;;
7475;SDS011;3779;49.216;8.650;2022-11-20T07:45:38;5.90;;;2.67;;
7475;SDS011;3779;49.216;8.650;2022-11-20T07:48:25;4.07;;;2.33;;
7475;SDS011;3779;49.216;8.650;2022-11-20T07:51:11;3.30;;;2.40;;
7475;SDS011;3779;49.216;8.650;2022-11-20T07:53:57;3.50;;;2.50;;
7475;SDS011;3779;49.216;8.650;2022-11-20T07:56:43;3.90;;;2.40;;
7475;SDS011;3779;49.216;8.650;2022-11-20T07:59:29;2.57;;;2.17;;
7475;SDS011;3779;49.216;8.650;2022-11-20T08:02:14;3.72;;;2.60;;
7475;SDS011;3779;49.216;8.650;2022-11-20T08:05:00;2.80;;;2.20;;
7475;SDS011;3779;49.216;8.650;2022-11-20T08:07:46;3.53;;;2.37;;
7475;SDS011;3779;49.216;8.650;2022-11-20T08:10:32;3.45;;;2.40;;
7475;SDS011;3779;49.216;8.650;2022-11-20T08:13:18;2.63;;;2.40;;
7475;SDS011;3779;49.216;8.650;2022-11-20T08:16:22;2.33;;;2.13;;
7475;SDS011;3779;49.216;8.650;2022-11-20T08:19:08;2.30;;;2.10;;
7475;SDS011;3779;49.216;8.650;2022-11-20T08:21:54;2.60;;;2.40;;
7475;SDS011;3779;49.216;8.650;2022-11-20T08:24:40;2.23;;;2.03;;
7475;SDS011;3779;49.216;8.650;2022-11-20T08:27:26;2.47;;;2.00;;
7475;SDS011;3779;49.216;8.650;2022-11-20T08:30:12;2.40;;;2.03;;
7475;SDS011;3779;49.216;8.650;2022-11-20T08:33:03;2.93;;;1.90;;
7475;SDS011;3779;49.216;8.650;2022-11-20T08:35:53;1.90;;;1.80;;
7475;SDS011;3779;49.216;8.650;2022-11-20T08:38:47;2.03;;;1.93;;
7475;SDS011;3779;49.216;8.650;2022-11-20T08:41:33;2.40;;;2.20;;
7475;SDS011;3779;49.216;8.650;2022-11-20T08:44:20;2.30;;;1.83;;
7475;SDS011;3779;49.216;8.650;2022-11-20T08:47:05;3.40;;;2.13;;
7475;SDS011;3779;49.216;8.650;2022-11-20T08:49:51;2.77;;;2.30;;
7475;SDS011;3779;49.216;8.650;2022-11-20T08:52:37;2.20;;;2.00;;
7475;SDS011;3779;49.216;8.650;2022-11-20T08:55:23;3.47;;;2.93;;
7475;SDS011;3779;49.216;8.650;2022-11-20T08:58:09;2.30;;;2.10;;
7475;SDS011;3779;49.216;8.650;2022-11-20T09:00:55;2.60;;;2.40;;
7475;SDS011;3779;49.216;8.650;2022-11-20T09:03:41;2.37;;;2.17;;
7475;SDS011;3779;49.216;8.650;2022-11-20T09:06:27;3.77;;;2.10;;
7475;SDS011;3779;49.216;8.650;2022-11-20T09:09:13;2.10;;;2.00;;
7475;SDS011;3779;49.216;8.650;2022-11-20T09:11:58;2.30;;;1.97;;
7475;SDS011;3779;49.216;8.650;2022-11-20T09:14:44;2.70;;;2.28;;
7475;SDS011;3779;49.216;8.650;2022-11-20T09:17:30;3.90;;;2.40;;
7475;SDS011;3779;49.216;8.650;2022-11-20T09:20:16;2.67;;;2.33;;
7475;SDS011;3779;49.216;8.650;2022-11-20T09:23:02;2.70;;;2.00;;
7475;SDS011;3779;49.216;8.650;2022-11-20T09:25:48;2.37;;;2.20;;
7475;SDS011;3779;49.216;8.650;2022-11-20T09:28:34;2.77;;;2.47;;
7475;SDS011;3779;49.216;8.650;2022-11-20T09:31:23;2.43;;;2.23;;
7475;SDS011;3779;49.216;8.650;2022-11-20T09:34:11;2.63;;;2.30;;
7475;SDS011;3779;49.216;8.650;2022-11-20T09:36:57;2.50;;;2.10;;
7475;SDS011;3779;49.216;8.650;2022-11-20T09:39:42;2.88;;;2.30;;
7475;SDS011;3779;49.216;8.650;2022-11-20T09:42:32;2.87;;;2.37;;
7475;SDS011;3779;49.216;8.650;2022-11-20T09:48:52;2.40;;;2.20;;
7475;SDS011;3779;49.216;8.650;2022-11-20T09:51:58;2.47;;;2.20;;
7475;SDS011;3779;49.216;8.650;2022-11-20T09:54:46;2.20;;;2.00;;
7475;SDS011;3779;49.216;8.650;2022-11-20T09:57:34;3.87;;;2.10;;
7475;SDS011;3779;49.216;8.650;2022-11-20T10:00:23;2.23;;;1.90;;
7475;SDS011;3779;49.216;8.650;2022-11-20T10:03:13;2.10;;;2.00;;
7475;SDS011;3779;49.216;8.650;2022-11-20T10:06:04;2.43;;;2.10;;
7475;SDS011;3779;49.216;8.650;2022-11-20T10:20:46;3.00;;;2.10;;
7475;SDS011;3779;49.216;8.650;2022-11-20T10:30:02;3.00;;;1.80;;
7475;SDS011;3779;49.216;8.650;2022-11-20T10:33:03;2.43;;;2.00;;
7475;SDS011;3779;49.216;8.650;2022-11-20T10:36:05;2.47;;;2.00;;
7475;SDS011;3779;49.216;8.650;2022-11-20T10:39:00;3.23;;;1.97;;
7475;SDS011;3779;49.216;8.650;2022-11-20T10:41:52;2.10;;;1.80;;
7475;SDS011;3779;49.216;8.650;2022-11-20T10:44:38;4.30;;;2.10;;
7475;SDS011;3779;49.216;8.650;2022-11-20T10:47:46;2.40;;;2.20;;
7475;SDS011;3779;49.216;8.650;2022-11-20T10:50:32;2.43;;;1.90;;
7475;SDS011;3779;49.216;8.650;2022-11-20T10:56:20;2.38;;;1.98;;
7475;SDS011;3779;49.216;8.650;2022-11-20T11:02:52;2.37;;;2.03;;
7475;SDS011;3779;49.216;8.650;2022-11-20T11:05:44;2.60;;;1.90;;
7475;SDS011;3779;49.216;8.650;2022-11-20T11:08:40;2.00;;;1.90;;
7475;SDS011;3779;49.216;8.650;2022-11-20T11:11:30;4.40;;;2.70;;
7475;SDS011;3779;49.216;8.650;2022-11-20T11:14:18;2.88;;;2.00;;
7475;SDS011;3779;49.216;8.650;2022-11-20T11:17:04;2.57;;;2.10;;
7475;SDS011;3779;49.216;8.650;2022-11-20T11:23:01;3.00;;;2.10;;
7475;SDS011;3779;49.216;8.650;2022-11-20T11:25:55;3.00;;;2.30;;
7475;SDS011;3779;49.216;8.650;2022-11-20T11:28:52;2.93;;;2.53;;
7475;SDS011;3779;49.216;8.650;2022-11-20T11:31:41;5.27;;;2.20;;
7475;SDS011;3779;49.216;8.650;2022-11-20T11:34:27;2.23;;;2.00;;
7475;SDS011;3779;49.216;8.650;2022-11-20T11:37:20;2.97;;;2.10;;
7475;SDS011;3779;49.216;8.650;2022-11-20T11:40:08;4.20;;;2.10;;
7475;SDS011;3779;49.216;8.650;2022-11-20T11:43:00;5.57;;;2.20;;
7475;SDS011;3779;49.216;8.650;2022-11-20T11:54:54;3.58;;;2.00;;
7475;SDS011;3779;49.216;8.650;2022-11-20T11:57:50;2.60;;;1.80;;
7475;SDS011;3779;49.216;8.650;2022-11-20T12:00:41;3.10;;;1.80;;
7475;SDS011;3779;49.216;8.650;2022-11-20T12:03:36;2.67;;;1.70;;
7475;SDS011;3779;49.216;8.650;2022-11-20T12:06:24;3.63;;;2.07;;
7475;SDS011;3779;49.216;8.650;2022-11-20T12:09:11;3.13;;;2.00;;
7475;SDS011;3779;49.216;8.650;2022-11-20T12:12:15;4.47;;;2.00;;
7475;SDS011;3779;49.216;8.650;2022-11-20T12:15:06;4.33;;;1.90;;
7475;SDS011;3779;49.216;8.650;2022-11-20T12:17:58;3.30;;;1.50;;
7475;SDS011;3779;49.216;8.650;2022-11-20T12:20:45;3.47;;;1.60;;
7475;SDS011;3779;49.216;8.650;2022-11-20T12:36:16;5.00;;;1.90;;
7475;SDS011;3779;49.216;8.650;2022-11-20T12:39:21;2.70;;;1.60;;
7475;SDS011;3779;49.216;8.650;2022-11-20T12:45:59;2.00;;;1.40;;
7475;SDS011;3779;49.216;8.650;2022-11-20T12:54:59;7.20;;;1.60;;
7475;SDS011;3779;49.216;8.650;2022-11-20T13:04:38;3.50;;;1.80;;
7475;SDS011;3779;49.216;8.650;2022-11-20T13:07:28;2.57;;;1.60;;
7475;SDS011;3779;49.216;8.650;2022-11-20T13:13:31;1.77;;;1.50;;
7475;SDS011;3779;49.216;8.650;2022-11-20T13:16:50;1.90;;;1.30;;
7475;SDS011;3779;49.216;8.650;2022-11-20T13:19:53;2.00;;;1.57;;
7475;SDS011;3779;49.216;8.650;2022-11-20T13:22:48;1.77;;;1.30;;
7475;SDS011;3779;49.216;8.650;2022-11-20T13:25:39;3.10;;;1.77;;
7475;SDS011;3779;49.216;8.650;2022-11-20T13:28:26;2.85;;;1.45;;
7475;SDS011;3779;49.216;8.650;2022-11-20T13:34:31;4.23;;;1.73;;
7475;SDS011;3779;49.216;8.650;2022-11-20T13:37:31;2.40;;;1.30;;
7475;SDS011;3779;49.216;8.650;2022-11-20T13:40:20;2.17;;;1.30;;
7475;SDS011;3779;49.216;8.650;2022-11-20T13:46:02;2.73;;;1.33;;
7475;SDS011;3779;49.216;8.650;2022-11-20T13:48:51;3.90;;;1.50;;
7475;SDS011;3779;49.216;8.650;2022-11-20T13:51:48;2.30;;;1.73;;
7475;SDS011;3779;49.216;8.650;2022-11-20T13:54:42;1.80;;;1.30;;
7475;SDS011;3779;49.216;8.650;2022-11-20T14:00:58;3.60;;;1.40;;
7475;SDS011;3779;49.216;8.650;2022-11-20T14:03:53;3.30;;;1.60;;
7475;SDS011;3779;49.216;8.650;2022-11-20T14:06:41;2.73;;;1.40;;
7475;SDS011;3779;49.216;8.650;2022-11-20T14:09:30;2.27;;;1.37;;
7475;SDS011;3779;49.216;8.650;2022-11-20T14:12:18;1.93;;;1.30;;
7475;SDS011;3779;49.216;8.650;2022-11-20T14:15:23;3.20;;;1.40;;
7475;SDS011;3779;49.216;8.650;2022-11-20T14:18:19;2.60;;;1.40;;
7475;SDS011;3779;49.216;8.650;2022-11-20T14:21:09;2.77;;;1.40;;
7475;SDS011;3779;49.216;8.650;2022-11-20T14:24:09;2.73;;;1.40;;
7475;SDS011;3779;49.216;8.650;2022-11-20T14:26:57;3.10;;;1.40;;
7475;SDS011;3779;49.216;8.650;2022-11-20T14:29:44;3.08;;;1.40;;
7475;SDS011;3779;49.216;8.650;2022-11-20T14:32:32;2.27;;;1.27;;
7475;SDS011;3779;49.216;8.650;2022-11-20T14:35:25;1.73;;;1.00;;
7475;SDS011;3779;49.216;8.650;2022-11-20T14:38:16;1.50;;;1.10;;
7475;SDS011;3779;49.216;8.650;2022-11-20T14:41:06;1.77;;;1.20;;
7475;SDS011;3779;49.216;8.650;2022-11-20T14:44:02;2.30;;;1.40;;
7475;SDS011;3779;49.216;8.650;2022-11-20T14:46:50;2.30;;;1.30;;
7475;SDS011;3779;49.216;8.650;2022-11-20T14:49:37;3.00;;;1.27;;
7475;SDS011;3779;49.216;8.650;2022-11-20T14:52:25;2.72;;;1.30;;
7475;SDS011;3779;49.216;8.650;2022-11-20T14:55:13;2.47;;;1.47;;
7475;SDS011;3779;49.216;8.650;2022-11-20T14:58:23;2.70;;;1.30;;
7475;SDS011;3779;49.216;8.650;2022-11-20T15:01:11;1.73;;;1.30;;
7475;SDS011;3779;49.216;8.650;2022-11-20T15:04:09;4.97;;;1.90;;
7475;SDS011;3779;49.216;8.650;2022-11-20T15:06:57;2.87;;;1.50;;
7475;SDS011;3779;49.216;8.650;2022-11-20T15:09:44;3.13;;;1.50;;
7475;SDS011;3779;49.216;8.650;2022-11-20T15:12:31;2.17;;;1.17;;
7475;SDS011;3779;49.216;8.650;2022-11-20T15:15:21;1.30;;;1.20;;
7475;SDS011;3779;49.216;8.650;2022-11-20T15:18:11;3.15;;;1.40;;
7475;SDS011;3779;49.216;8.650;2022-11-20T15:21:02;1.90;;;1.30;;
7475;SDS011;3779;49.216;8.650;2022-11-20T15:23:54;3.47;;;1.33;;
7475;SDS011;3779;49.216;8.650;2022-11-20T15:26:40;2.43;;;1.50;;
7475;SDS011;3779;49.216;8.650;2022-11-20T15:29:26;3.93;;;1.50;;
7475;SDS011;3779;49.216;8.650;2022-11-20T15:32:13;2.07;;;1.30;;
7475;SDS011;3779;49.216;8.650;2022-11-20T15:34:59;58.07;;;36.53;;
7475;SDS011;3779;49.216;8.650;2022-11-20T15:37:44;38.63;;;27.03;;
7475;SDS011;3779;49.216;8.650;2022-11-20T15:40:30;6.83;;;4.43;;
7475;SDS011;3779;49.216;8.650;2022-11-20T15:43:16;3.00;;;1.80;;
7475;SDS011;3779;49.216;8.650;2022-11-20T15:46:06;2.87;;;2.30;;
7475;SDS011;3779;49.216;8.650;2022-11-20T15:48:56;2.27;;;1.80;;
7475;SDS011;3779;49.216;8.650;2022-11-20T15:51:46;3.60;;;2.20;;
7475;SDS011;3779;49.216;8.650;2022-11-20T15:54:34;4.70;;;2.50;;
7475;SDS011;3779;49.216;8.650;2022-11-20T15:57:19;3.40;;;2.25;;
7475;SDS011;3779;49.216;8.650;2022-11-20T16:00:06;2.13;;;1.90;;
7475;SDS011;3779;49.216;8.650;2022-11-20T16:02:57;3.33;;;1.67;;
7475;SDS011;3779;49.216;8.650;2022-11-20T16:05:43;3.20;;;2.40;;
7475;SDS011;3779;49.216;8.650;2022-11-20T16:08:30;2.50;;;1.57;;
7475;SDS011;3779;49.216;8.650;2022-11-20T16:11:16;3.00;;;1.40;;
7475;SDS011;3779;49.216;8.650;2022-11-20T16:14:04;1.90;;;1.60;;
7475;SDS011;3779;49.216;8.650;2022-11-20T16:17:09;2.45;;;1.55;;
7475;SDS011;3779;49.216;8.650;2022-11-20T16:19:55;3.87;;;1.47;;
7475;SDS011;3779;49.216;8.650;2022-11-20T16:22:41;2.83;;;1.65;;
7475;SDS011;3779;49.216;8.650;2022-11-20T16:25:27;1.63;;;1.20;;
7475;SDS011;3779;49.216;8.650;2022-11-20T16:28:13;2.53;;;1.83;;
7475;SDS011;3779;49.216;8.650;2022-11-20T16:31:07;1.90;;;1.30;;
7475;SDS011;3779;49.216;8.650;2022-11-20T16:34:01;2.13;;;1.63;;
7475;SDS011;3779;49.216;8.650;2022-11-20T16:36:48;2.43;;;1.20;;
7475;SDS011;3779;49.216;8.650;2022-11-20T16:39:34;3.70;;;1.53;;
7475;SDS011;3779;49.216;8.650;2022-11-20T16:42:20;1.70;;;1.17;;
7475;SDS011;3779;49.216;8.650;2022-11-20T16:45:06;3.53;;;1.50;;
7475;SDS011;3779;49.216;8.650;2022-11-20T16:47:53;1.80;;;1.50;;
7475;SDS011;3779;49.216;8.650;2022-11-20T16:50:44;1.30;;;1.20;;
7475;SDS011;3779;49.216;8.650;2022-11-20T16:53:32;3.00;;;2.27;;
7475;SDS011;3779;49.216;8.650;2022-11-20T16:56:19;6.07;;;4.23;;
7475;SDS011;3779;49.216;8.650;2022-11-20T16:59:07;3.47;;;2.40;;
7475;SDS011;3779;49.216;8.650;2022-11-20T17:01:53;3.47;;;2.17;;
7475;SDS011;3779;49.216;8.650;2022-11-20T17:04:39;3.65;;;1.70;;
7475;SDS011;3779;49.216;8.650;2022-11-20T17:07:26;2.37;;;1.80;;
7475;SDS011;3779;49.216;8.650;2022-11-20T17:10:15;2.00;;;1.30;;
7475;SDS011;3779;49.216;8.650;2022-11-20T17:13:01;1.33;;;1.20;;
7475;SDS011;3779;49.216;8.650;2022-11-20T17:15:47;3.10;;;1.40;;
7475;SDS011;3779;49.216;8.650;2022-11-20T17:18:34;3.20;;;1.60;;
7475;SDS011;3779;49.216;8.650;2022-11-20T17:21:20;1.37;;;1.23;;
7475;SDS011;3779;49.216;8.650;2022-11-20T17:24:07;3.20;;;1.33;;
7475;SDS011;3779;49.216;8.650;2022-11-20T17:26:54;2.67;;;1.33;;
7475;SDS011;3779;49.216;8.650;2022-11-20T17:29:40;2.28;;;1.60;;
7475;SDS011;3779;49.216;8.650;2022-11-20T17:32:27;2.50;;;1.30;;
7475;SDS011;3779;49.216;8.650;2022-11-20T17:35:13;1.30;;;1.20;;
7475;SDS011;3779;49.216;8.650;2022-11-20T17:37:59;1.77;;;1.33;;
7475;SDS011;3779;49.216;8.650;2022-11-20T17:40:45;1.50;;;1.10;;
7475;SDS011;3779;49.216;8.650;2022-11-20T17:43:31;3.63;;;1.50;;
7475;SDS011;3779;49.216;8.650;2022-11-20T17:46:18;1.60;;;1.50;;
7475;SDS011;3779;49.216;8.650;2022-11-20T17:49:06;4.97;;;4.47;;
7475;SDS011;3779;49.216;8.650;2022-11-20T17:51:52;3.90;;;3.50;;
7475;SDS011;3779;49.216;8.650;2022-11-20T17:54:38;1.93;;;1.60;;
7475;SDS011;3779;49.216;8.650;2022-11-20T17:57:24;5.00;;;4.50;;
7475;SDS011;3779;49.216;8.650;2022-11-20T18:00:29;2.90;;;2.23;;
7475;SDS011;3779;49.216;8.650;2022-11-20T18:03:16;8.33;;;7.53;;
7475;SDS011;3779;49.216;8.650;2022-11-20T18:09:01;2.45;;;1.90;;
7475;SDS011;3779;49.216;8.650;2022-11-20T18:11:48;5.90;;;4.50;;
7475;SDS011;3779;49.216;8.650;2022-11-20T18:14:34;2.90;;;2.50;;
7475;SDS011;3779;49.216;8.650;2022-11-20T18:17:21;5.77;;;3.90;;
7475;SDS011;3779;49.216;8.650;2022-11-20T18:20:07;3.77;;;3.40;;
7475;SDS011;3779;49.216;8.650;2022-11-20T18:22:53;2.67;;;2.43;;
7475;SDS011;3779;49.216;8.650;2022-11-20T18:25:39;2.33;;;2.10;;
7475;SDS011;3779;49.216;8.650;2022-11-20T18:28:27;3.43;;;2.17;;
7475;SDS011;3779;49.216;8.650;2022-11-20T18:31:13;3.30;;;1.88;;
7475;SDS011;3779;49.216;8.650;2022-11-20T18:34:00;2.55;;;1.50;;
7475;SDS011;3779;49.216;8.650;2022-11-20T18:36:47;3.67;;;1.50;;
7475;SDS011;3779;49.216;8.650;2022-11-20T18:39:33;3.10;;;1.63;;
7475;SDS011;3779;49.216;8.650;2022-11-20T18:42:19;2.40;;;1.70;;
7475;SDS011;3779;49.216;8.650;2022-11-20T18:45:23;5.47;;;1.47;;
7475;SDS011;3779;49.216;8.650;2022-11-20T18:48:09;1.50;;;1.40;;
7475;SDS011;3779;49.216;8.650;2022-11-20T18:51:03;1.50;;;1.40;;
7475;SDS011;3779;49.216;8.650;2022-11-20T18:53:50;2.90;;;1.40;;